Tk Rotterdam — A8RG8 — position and weather

sailwx.info

Track history (hours):
 
Tides and Currents Weather Stations Pressure Air Temp Water Temp Dewpoint Dewpoint Depression Visibility Wind Speed Wind Dir Waves Ship Positions

Tk Rotterdam

Last reported at 2017-Sep-24 06:57 UTC. Time now 2017-Sep-24 07:07 UTC.
Position N 46°56' E 032°01'.

Length 130 m; draft 5.1 m.

Type: Cargo ship. MMSI: 636014098.

Date/timePositionNaut miles runAvg speedWind from/ knotsBaromVisibWave heightAir tempDewpointWater temp
2017-Sep-24 06:57N 46°56' E 032°01'0 0.0
2017-Sep-24 06:25N 46°56' E 032°01'0 0.0
2017-Sep-24 06:00N 46°56' E 032°01'0 0.0
2017-Sep-24 05:30N 46°56' E 032°01'0 0.0
2017-Sep-24 04:58N 46°56' E 032°01'0 0.0
2017-Sep-24 04:28N 46°56' E 032°01'0 0.0
2017-Sep-24 03:57N 46°56' E 032°01'0 0.0
2017-Sep-24 03:28N 46°56' E 032°01'0 0.0
2017-Sep-24 02:59N 46°56' E 032°01'0 0.1
2017-Sep-24 02:29N 46°56' E 032°01'0 0.0
2017-Sep-24 01:56N 46°56' E 032°01'0 0.0
2017-Sep-24 01:29N 46°56' E 032°01'0 0.1
2017-Sep-24 00:58N 46°56' E 032°01'0 0.1
2017-Sep-24 00:28N 46°56' E 032°01'0 0.1
2017-Sep-24 00:00N 46°56' E 032°01'0 0.0
2017-Sep-23 23:25N 46°56' E 032°01'0 0.0
2017-Sep-23 22:55N 46°56' E 032°01'0 0.0
2017-Sep-23 22:28N 46°56' E 032°01'0 0.0
2017-Sep-23 22:00N 46°56' E 032°01'0 0.0
2017-Sep-23 21:30N 46°56' E 032°01'0 0.0
2017-Sep-23 20:59N 46°56' E 032°01'0 0.0
2017-Sep-23 20:28N 46°56' E 032°01'0 0.1
2017-Sep-23 19:59N 46°56' E 032°01'53 1.2
2017-Sep-21 23:56N 46°19' E 031°05'0 0.1
2017-Sep-21 23:29N 46°19' E 031°05'10 2.5
2017-Sep-21 19:32N 46°09' E 031°08'4 8.6
2017-Sep-21 19:02N 46°06' E 031°12'1 8.6
2017-Sep-21 18:57N 46°05' E 031°13'5 8.1
2017-Sep-21 18:19N 46°02' E 031°18'3 7.9
2017-Sep-21 17:58N 45°60' E 031°21'4 7.9
2017-Sep-21 17:28N 45°57' E 031°25'6 9.5
2017-Sep-21 16:51N 45°53' E 031°30'412.2
2017-Sep-21 16:30N 45°49' E 031°35'912.5
2017-Sep-21 15:46N 45°43' E 031°44'412.4
2017-Sep-21 15:28N 45°40' E 031°47'612.3
2017-Sep-21 15:00N 45°35' E 031°52'612.6
2017-Sep-21 14:30N 45°30' E 031°58'10712.7
2017-Sep-21 06:03N 44°09' E 033°37'213.1
2017-Sep-21 05:55N 44°08' E 033°38'613.2
2017-Sep-21 05:27N 44°03' E 033°44'1813.2
2017-Sep-21 04:07N 43°49' E 033°59'113.2
2017-Sep-21 04:00N 43°48' E 034°00'4413.0
2017-Sep-21 00:36N 43°13' E 034°37'213.0
2017-Sep-21 00:27N 43°12' E 034°39'5213.0
2017-Sep-20 20:29N 42°31' E 035°22'1113.0
2017-Sep-20 19:39N 42°22' E 035°31'  
2017-Sep-18 00:08N 42°06' E 035°47'1 9.4
2017-Sep-18 00:00N 42°06' E 035°46'5 9.5
2017-Sep-17 23:26N 42°11' E 035°41'5 9.9
2017-Sep-17 22:56N 42°15' E 035°37'4 9.9
2017-Sep-17 22:30N 42°18' E 035°33'5 9.9
2017-Sep-17 22:00N 42°22' E 035°29'8 9.8
2017-Sep-17 21:12N 42°28' E 035°23'62 9.6
2017-Sep-17 14:45N 43°18' E 034°31'19 9.7
2017-Sep-17 12:49N 43°32' E 034°16'3 9.1
2017-Sep-17 12:30N 43°35' E 034°13'5 9.1
2017-Sep-17 12:00N 43°38' E 034°09'5 8.9
2017-Sep-17 11:30N 43°42' E 034°06'6 9.0
2017-Sep-17 10:47N 43°47' E 034°00'3 9.0
2017-Sep-17 10:28N 43°49' E 033°58'4 8.9
2017-Sep-17 10:00N 43°53' E 033°54'6 8.8
2017-Sep-17 09:20N 43°57' E 033°49'4 8.7
2017-Sep-17 08:53N 44°00' E 033°46'3 8.6
2017-Sep-17 08:30N 44°03' E 033°43'7 8.5
2017-Sep-17 07:41N 44°08' E 033°37'29 9.2
2017-Sep-17 04:32N 44°30' E 033°10'0 9.7
2017-Sep-17 04:30N 44°30' E 033°09'5 9.8
2017-Sep-17 03:58N 44°34' E 033°04'5 9.8
2017-Sep-17 03:30N 44°37' E 033°00'5 9.8
2017-Sep-17 03:00N 44°41' E 032°56'5 9.6
2017-Sep-17 02:30N 44°44' E 032°51'5 9.3
2017-Sep-17 02:00N 44°47' E 032°46'5 9.2
2017-Sep-17 01:28N 44°51' E 032°42'4 9.2
2017-Sep-17 01:00N 44°54' E 032°38'5 9.0
2017-Sep-17 00:30N 44°58' E 032°33'5 9.1
2017-Sep-16 23:59N 45°01' E 032°29'5 9.1
2017-Sep-16 23:27N 45°05' E 032°24'13 9.4
2017-Sep-16 22:07N 45°14' E 032°12'1 9.2
2017-Sep-16 22:00N 45°15' E 032°11'5 9.1
2017-Sep-16 21:30N 45°18' E 032°07'5 9.4
2017-Sep-16 21:00N 45°22' E 032°03'5 9.2
2017-Sep-16 20:29N 45°25' E 031°58'4 8.9
2017-Sep-16 20:00N 45°28' E 031°54'11 8.8
2017-Sep-16 18:43N 45°36' E 031°42'2 8.9
2017-Sep-16 18:28N 45°37' E 031°39'5 9.1
2017-Sep-16 17:57N 45°41' E 031°35'4 9.4
2017-Sep-16 17:29N 45°45' E 031°32'5 9.7
2017-Sep-16 17:00N 45°48' E 031°28'13 9.8
2017-Sep-16 15:42N 45°58' E 031°16'2 9.7
2017-Sep-16 15:30N 45°59' E 031°14'6 9.7
2017-Sep-16 14:55N 46°04' E 031°08'4 9.9
2017-Sep-16 14:30N 46°07' E 031°05'5 9.8
2017-Sep-16 14:00N 46°10' E 030°60'5 9.6
2017-Sep-16 13:30N 46°14' E 030°56'5 9.3
2017-Sep-16 13:00N 46°19' E 030°55'5 9.4
2017-Sep-16 12:30N 46°24' E 030°55'5 9.3
2017-Sep-16 11:57N 46°29' E 030°55'8 7.5
2017-Sep-16 10:57N 46°34' E 031°03'4 9.3
2017-Sep-16 10:30N 46°35' E 031°09'7 9.5
2017-Sep-16 09:45N 46°35' E 031°19'3 9.6
2017-Sep-16 09:23N 46°35' E 031°24'5 8.2
2017-Sep-16 08:45N 46°35' E 031°32'2 9.2
2017-Sep-16 08:31N 46°35' E 031°35'5 9.4
2017-Sep-16 07:58N 46°36' E 031°42'5 9.0
2017-Sep-16 07:25N 46°35' E 031°50'4 9.0
2017-Sep-16 07:00N 46°34' E 031°55'5 9.1
2017-Sep-16 06:30N 46°33' E 032°01'7 9.0
2017-Sep-16 05:43N 46°32' E 032°11'2 9.5
2017-Sep-16 05:30N 46°33' E 032°14'5 8.7
2017-Sep-16 04:59N 46°33' E 032°21'4 8.4
2017-Sep-16 04:30N 46°34' E 032°26'6 9.0
2017-Sep-16 03:48N 46°36' E 032°35'2 0.2
2017-Sep-15 18:50N 46°37' E 032°37'  
Track history (hours):
 
Tides and Currents Weather Stations Pressure Air Temp Water Temp Dewpoint Dewpoint Depression Visibility Wind Speed Wind Dir Waves Ship Positions

Tk Rotterdam

Last reported at 2017-Sep-24 06:57 UTC. Time now 2017-Sep-24 07:07 UTC.
Position N 46°56' E 032°01'.

Length 130 m; draft 5.1 m.

Type: Cargo ship. MMSI: 636014098.

Date/timePositionNaut miles runAvg speedWind from/ knotsBaromVisibWave heightAir tempDewpointWater temp
2017-Sep-24 06:57N 46°56' E 032°01'0 0.0
2017-Sep-24 06:25N 46°56' E 032°01'0 0.0
2017-Sep-24 06:00N 46°56' E 032°01'0 0.0
2017-Sep-24 05:30N 46°56' E 032°01'0 0.0
2017-Sep-24 04:58N 46°56' E 032°01'0 0.0
2017-Sep-24 04:28N 46°56' E 032°01'0 0.0
2017-Sep-24 03:57N 46°56' E 032°01'0 0.0
2017-Sep-24 03:28N 46°56' E 032°01'0 0.0
2017-Sep-24 02:59N 46°56' E 032°01'0 0.1
2017-Sep-24 02:29N 46°56' E 032°01'0 0.0
2017-Sep-24 01:56N 46°56' E 032°01'0 0.0
2017-Sep-24 01:29N 46°56' E 032°01'0 0.1
2017-Sep-24 00:58N 46°56' E 032°01'0 0.1
2017-Sep-24 00:28N 46°56' E 032°01'0 0.1
2017-Sep-24 00:00N 46°56' E 032°01'0 0.0
2017-Sep-23 23:25N 46°56' E 032°01'0 0.0
2017-Sep-23 22:55N 46°56' E 032°01'0 0.0
2017-Sep-23 22:28N 46°56' E 032°01'0 0.0
2017-Sep-23 22:00N 46°56' E 032°01'0 0.0
2017-Sep-23 21:30N 46°56' E 032°01'0 0.0
2017-Sep-23 20:59N 46°56' E 032°01'0 0.0
2017-Sep-23 20:28N 46°56' E 032°01'0 0.1
2017-Sep-23 19:59N 46°56' E 032°01'53 1.2
2017-Sep-21 23:56N 46°19' E 031°05'0 0.1
2017-Sep-21 23:29N 46°19' E 031°05'10 2.5
2017-Sep-21 19:32N 46°09' E 031°08'4 8.6
2017-Sep-21 19:02N 46°06' E 031°12'1 8.6
2017-Sep-21 18:57N 46°05' E 031°13'5 8.1
2017-Sep-21 18:19N 46°02' E 031°18'3 7.9
2017-Sep-21 17:58N 45°60' E 031°21'4 7.9
2017-Sep-21 17:28N 45°57' E 031°25'6 9.5
2017-Sep-21 16:51N 45°53' E 031°30'412.2
2017-Sep-21 16:30N 45°49' E 031°35'912.5
2017-Sep-21 15:46N 45°43' E 031°44'412.4
2017-Sep-21 15:28N 45°40' E 031°47'612.3
2017-Sep-21 15:00N 45°35' E 031°52'612.6
2017-Sep-21 14:30N 45°30' E 031°58'10712.7
2017-Sep-21 06:03N 44°09' E 033°37'213.1
2017-Sep-21 05:55N 44°08' E 033°38'613.2
2017-Sep-21 05:27N 44°03' E 033°44'1813.2
2017-Sep-21 04:07N 43°49' E 033°59'113.2
2017-Sep-21 04:00N 43°48' E 034°00'4413.0
2017-Sep-21 00:36N 43°13' E 034°37'213.0
2017-Sep-21 00:27N 43°12' E 034°39'5213.0
2017-Sep-20 20:29N 42°31' E 035°22'1113.0
2017-Sep-20 19:39N 42°22' E 035°31'  
2017-Sep-18 00:08N 42°06' E 035°47'1 9.4
2017-Sep-18 00:00N 42°06' E 035°46'5 9.5
2017-Sep-17 23:26N 42°11' E 035°41'5 9.9
2017-Sep-17 22:56N 42°15' E 035°37'4 9.9
2017-Sep-17 22:30N 42°18' E 035°33'5 9.9
2017-Sep-17 22:00N 42°22' E 035°29'8 9.8
2017-Sep-17 21:12N 42°28' E 035°23'62 9.6
2017-Sep-17 14:45N 43°18' E 034°31'19 9.7
2017-Sep-17 12:49N 43°32' E 034°16'3 9.1
2017-Sep-17 12:30N 43°35' E 034°13'5 9.1
2017-Sep-17 12:00N 43°38' E 034°09'5 8.9
2017-Sep-17 11:30N 43°42' E 034°06'6 9.0
2017-Sep-17 10:47N 43°47' E 034°00'3 9.0
2017-Sep-17 10:28N 43°49' E 033°58'4 8.9
2017-Sep-17 10:00N 43°53' E 033°54'6 8.8
2017-Sep-17 09:20N 43°57' E 033°49'4 8.7
2017-Sep-17 08:53N 44°00' E 033°46'3 8.6
2017-Sep-17 08:30N 44°03' E 033°43'7 8.5
2017-Sep-17 07:41N 44°08' E 033°37'29 9.2
2017-Sep-17 04:32N 44°30' E 033°10'0 9.7
2017-Sep-17 04:30N 44°30' E 033°09'5 9.8
2017-Sep-17 03:58N 44°34' E 033°04'5 9.8
2017-Sep-17 03:30N 44°37' E 033°00'5 9.8
2017-Sep-17 03:00N 44°41' E 032°56'5 9.6
2017-Sep-17 02:30N 44°44' E 032°51'5 9.3
2017-Sep-17 02:00N 44°47' E 032°46'5 9.2
2017-Sep-17 01:28N 44°51' E 032°42'4 9.2
2017-Sep-17 01:00N 44°54' E 032°38'5 9.0
2017-Sep-17 00:30N 44°58' E 032°33'5 9.1
2017-Sep-16 23:59N 45°01' E 032°29'5 9.1
2017-Sep-16 23:27N 45°05' E 032°24'13 9.4
2017-Sep-16 22:07N 45°14' E 032°12'1 9.2
2017-Sep-16 22:00N 45°15' E 032°11'5 9.1
2017-Sep-16 21:30N 45°18' E 032°07'5 9.4
2017-Sep-16 21:00N 45°22' E 032°03'5 9.2
2017-Sep-16 20:29N 45°25' E 031°58'4 8.9
2017-Sep-16 20:00N 45°28' E 031°54'11 8.8
2017-Sep-16 18:43N 45°36' E 031°42'2 8.9
2017-Sep-16 18:28N 45°37' E 031°39'5 9.1
2017-Sep-16 17:57N 45°41' E 031°35'4 9.4
2017-Sep-16 17:29N 45°45' E 031°32'5 9.7
2017-Sep-16 17:00N 45°48' E 031°28'13 9.8
2017-Sep-16 15:42N 45°58' E 031°16'2 9.7
2017-Sep-16 15:30N 45°59' E 031°14'6 9.7
2017-Sep-16 14:55N 46°04' E 031°08'4 9.9
2017-Sep-16 14:30N 46°07' E 031°05'5 9.8
2017-Sep-16 14:00N 46°10' E 030°60'5 9.6
2017-Sep-16 13:30N 46°14' E 030°56'5 9.3
2017-Sep-16 13:00N 46°19' E 030°55'5 9.4
2017-Sep-16 12:30N 46°24' E 030°55'5 9.3
2017-Sep-16 11:57N 46°29' E 030°55'8 7.5
2017-Sep-16 10:57N 46°34' E 031°03'4 9.3
2017-Sep-16 10:30N 46°35' E 031°09'7 9.5
2017-Sep-16 09:45N 46°35' E 031°19'3 9.6
2017-Sep-16 09:23N 46°35' E 031°24'5 8.2
2017-Sep-16 08:45N 46°35' E 031°32'2 9.2
2017-Sep-16 08:31N 46°35' E 031°35'5 9.4
2017-Sep-16 07:58N 46°36' E 031°42'5 9.0
2017-Sep-16 07:25N 46°35' E 031°50'4 9.0
2017-Sep-16 07:00N 46°34' E 031°55'5 9.1
2017-Sep-16 06:30N 46°33' E 032°01'7 9.0
2017-Sep-16 05:43N 46°32' E 032°11'2 9.5
2017-Sep-16 05:30N 46°33' E 032°14'5 8.7
2017-Sep-16 04:59N 46°33' E 032°21'4 8.4
2017-Sep-16 04:30N 46°34' E 032°26'6 9.0
2017-Sep-16 03:48N 46°36' E 032°35'2 0.2
2017-Sep-15 18:50N 46°37' E 032°37'  

Dump ship's entire track history